sensor_id;sensor_type;location;lat;lon;timestamp;P1;durP1;ratioP1;P2;durP2;ratioP2
46633;SDS011;32362;49.986;8.026;2023-04-06T00:03:24;14.77;;;7.07;;
46633;SDS011;32362;49.986;8.026;2023-04-06T00:30:08;13.43;;;6.90;;
46633;SDS011;32362;49.986;8.026;2023-04-06T00:56:49;11.40;;;6.15;;
46633;SDS011;32362;49.986;8.026;2023-04-06T01:23:31;14.00;;;6.63;;
46633;SDS011;32362;49.986;8.026;2023-04-06T01:50:19;13.88;;;7.10;;
46633;SDS011;32362;49.986;8.026;2023-04-06T02:17:00;18.70;;;8.60;;
46633;SDS011;32362;49.986;8.026;2023-04-06T02:43:41;18.42;;;8.10;;
46633;SDS011;32362;49.986;8.026;2023-04-06T03:10:37;16.13;;;7.95;;
46633;SDS011;32362;49.986;8.026;2023-04-06T03:37:21;14.10;;;7.22;;
46633;SDS011;32362;49.986;8.026;2023-04-06T04:04:07;13.90;;;7.40;;
46633;SDS011;32362;49.986;8.026;2023-04-06T04:31:04;16.55;;;7.53;;
46633;SDS011;32362;49.986;8.026;2023-04-06T04:57:49;16.85;;;7.93;;
46633;SDS011;32362;49.986;8.026;2023-04-06T05:24:33;20.70;;;8.00;;
46633;SDS011;32362;49.986;8.026;2023-04-06T05:51:16;15.30;;;8.45;;
46633;SDS011;32362;49.986;8.026;2023-04-06T06:18:16;15.48;;;7.10;;
46633;SDS011;32362;49.986;8.026;2023-04-06T06:44:57;12.40;;;6.95;;
46633;SDS011;32362;49.986;8.026;2023-04-06T08:05:12;15.45;;;8.65;;
46633;SDS011;32362;49.986;8.026;2023-04-06T08:32:09;12.23;;;7.47;;
46633;SDS011;32362;49.986;8.026;2023-04-06T08:58:51;11.45;;;7.30;;
46633;SDS011;32362;49.986;8.026;2023-04-06T09:25:33;14.68;;;8.68;;
46633;SDS011;32362;49.986;8.026;2023-04-06T09:52:14;13.88;;;8.50;;
46633;SDS011;32362;49.986;8.026;2023-04-06T10:19:06;12.37;;;8.33;;
46633;SDS011;32362;49.986;8.026;2023-04-06T10:45:55;10.75;;;8.45;;
46633;SDS011;32362;49.986;8.026;2023-04-06T11:12:37;14.68;;;8.68;;
46633;SDS011;32362;49.986;8.026;2023-04-06T11:39:18;11.27;;;8.77;;
46633;SDS011;32362;49.986;8.026;2023-04-06T12:06:00;10.50;;;8.18;;
46633;SDS011;32362;49.986;8.026;2023-04-06T12:32:46;8.82;;;5.78;;
46633;SDS011;32362;49.986;8.026;2023-04-06T12:59:27;4.60;;;3.83;;
46633;SDS011;32362;49.986;8.026;2023-04-06T13:26:27;9.35;;;5.75;;
46633;SDS011;32362;49.986;8.026;2023-04-06T13:53:08;8.17;;;4.70;;
46633;SDS011;32362;49.986;8.026;2023-04-06T14:19:49;9.30;;;5.32;;
46633;SDS011;32362;49.986;8.026;2023-04-06T14:46:31;8.02;;;4.72;;
46633;SDS011;32362;49.986;8.026;2023-04-06T15:13:16;5.22;;;3.20;;
46633;SDS011;32362;49.986;8.026;2023-04-06T15:39:57;5.95;;;3.40;;
46633;SDS011;32362;49.986;8.026;2023-04-06T16:06:40;7.38;;;2.75;;
46633;SDS011;32362;49.986;8.026;2023-04-06T16:33:21;3.67;;;2.28;;
46633;SDS011;32362;49.986;8.026;2023-04-06T17:00:05;3.80;;;2.33;;
46633;SDS011;32362;49.986;8.026;2023-04-06T17:26:46;4.68;;;3.03;;
46633;SDS011;32362;49.986;8.026;2023-04-06T17:53:27;5.93;;;3.58;;
46633;SDS011;32362;49.986;8.026;2023-04-06T18:20:11;11.02;;;4.43;;
46633;SDS011;32362;49.986;8.026;2023-04-06T18:46:52;12.20;;;7.30;;
46633;SDS011;32362;49.986;8.026;2023-04-06T19:13:33;12.82;;;7.90;;
46633;SDS011;32362;49.986;8.026;2023-04-06T19:40:13;12.45;;;7.10;;
46633;SDS011;32362;49.986;8.026;2023-04-06T20:06:54;14.07;;;7.50;;
46633;SDS011;32362;49.986;8.026;2023-04-06T20:33:35;14.95;;;8.70;;
46633;SDS011;32362;49.986;8.026;2023-04-06T21:00:21;14.93;;;9.68;;
46633;SDS011;32362;49.986;8.026;2023-04-06T21:27:02;14.35;;;7.72;;
46633;SDS011;32362;49.986;8.026;2023-04-06T21:53:42;14.18;;;8.85;;
46633;SDS011;32362;49.986;8.026;2023-04-06T22:20:23;21.08;;;11.82;;
46633;SDS011;32362;49.986;8.026;2023-04-06T22:47:12;20.70;;;12.47;;
46633;SDS011;32362;49.986;8.026;2023-04-06T23:13:53;21.65;;;11.90;;
46633;SDS011;32362;49.986;8.026;2023-04-06T23:40:36;27.88;;;12.70;;
